Time;durP1;ratioP1;P1;durP2;ratioP2;P2;SDS_P1;SDS_P2;PMS_P1;PMS_P2;Temp;Humidity;BMP_temperature;BMP_pressure;BME280_temperature;BME280_humidity;BME280_pressure;Samples;Min_cycle;Max_cycle;Signal;HPM_P1;HPM_P2
2022/07/21 00:00:28;;;;;;;10.70;8.20;;;;;;;20.22;90.81;101574.09;4718009;30;20101;-70
2022/07/21 00:03:01;;;;;;;8.80;7.70;;;;;;;20.18;90.94;101557.31;4724091;30;20045;-70
2022/07/21 00:05:27;;;;;;;9.13;7.97;;;;;;;20.16;91.78;101552.09;4715170;30;20044;-70
2022/07/21 00:07:53;;;;;;;9.18;7.93;;;;;;;20.15;91.53;101563.34;4719131;30;20520;-70
2022/07/21 00:10:19;;;;;;;9.60;7.93;;;;;;;;;;4718740;30;20033;-70
2022/07/21 00:12:45;;;;;;;11.48;8.43;;;;;;;20.09;92.35;101564.44;4703355;30;20439;-70
2022/07/21 00:15:12;;;;;;;10.05;8.05;;;;;;;20.01;92.87;101563.88;4718283;30;20029;-70
2022/07/21 00:17:38;;;;;;;9.23;7.82;;;;;;;19.98;93.81;101561.66;4718969;30;20041;-70
2022/07/21 00:20:06;;;;;;;8.93;7.80;;;;;;;19.96;94.31;101555.63;4718514;30;20043;-70
2022/07/21 00:22:32;;;;;;;9.20;7.85;;;;;;;19.94;94.53;101551.50;4716589;30;20131;-70
2022/07/21 00:24:58;;;;;;;9.85;8.32;;;;;;;19.87;95.46;101557.25;4718409;30;20032;-70
2022/07/21 00:27:23;;;;;;;11.63;8.60;;;;;;;19.90;95.63;101564.97;4718193;30;20033;-70
2022/07/21 00:29:49;;;;;;;11.38;7.63;;;;;;;19.87;96.81;101565.50;4718675;30;20428;-70
2022/07/21 00:32:14;;;;;;;10.77;8.27;;;;;;;19.88;95.37;101558.88;4719204;30;20037;-71
2022/07/21 00:34:39;;;;;;;10.25;8.20;;;;;;;19.83;96.44;101564.38;4718138;30;20025;-71
2022/07/21 00:37:05;;;;;;;10.98;7.95;;;;;;;19.77;97.11;101555.28;4703128;30;20437;-71
2022/07/21 00:39:30;;;;;;;9.35;8.23;;;;;;;19.81;96.76;101567.41;4703215;30;20116;-72
2022/07/21 00:41:55;;;;;;;11.15;8.13;;;;;;;19.87;96.41;101567.41;4718719;30;20041;-71
2022/07/21 00:44:23;;;;;;;9.23;7.75;;;;;;;19.83;96.87;101564.38;4718224;30;20033;-70
2022/07/21 00:46:49;;;;;;;11.55;8.00;;;;;;;19.85;98.50;101562.19;4703034;30;20033;-70
2022/07/21 00:49:14;;;;;;;12.70;8.30;;;;;;;19.88;96.31;101560.81;4717270;30;20338;-73
2022/07/21 00:51:39;;;;;;;11.73;8.55;;;;;;;19.79;97.72;101560.50;4718586;30;20689;-70
2022/07/21 00:54:04;;;;;;;9.38;8.30;;;;;;;19.83;99.03;101564.38;4717434;30;22167;-71
2022/07/21 00:56:30;;;;;;;11.88;8.32;;;;;;;19.81;98.23;101566.59;4717549;30;20029;-72
2022/07/21 00:58:56;;;;;;;11.52;8.77;;;;;;;19.83;97.04;101562.44;4717624;30;20040;-70
2022/07/21 01:01:21;;;;;;;11.13;8.63;;;;;;;19.82;97.34;101557.22;4718181;30;20474;-70
2022/07/21 01:03:46;;;;;;;11.23;8.57;;;;;;;19.77;98.50;101547.06;4720698;30;20100;-70
2022/07/21 01:06:12;;;;;;;10.02;9.02;;;;;;;19.75;98.30;101548.41;4718799;30;20041;-72
2022/07/21 01:08:38;;;;;;;10.95;9.50;;;;;;;19.74;98.66;101546.75;4718055;30;20037;-72
2022/07/21 01:11:03;;;;;;;9.73;8.75;;;;;;;19.69;99.03;101533.84;4702665;30;20067;-69
2022/07/21 01:13:29;;;;;;;11.95;8.77;;;;;;;19.66;99.36;101526.94;4717629;30;20099;-69
2022/07/21 01:15:55;;;;;;;10.57;9.00;;;;;;;19.56;100.00;101529.66;4717653;30;20123;-70
2022/07/21 01:18:20;;;;;;;13.20;9.85;;;;;;;19.53;100.00;101532.94;4717533;30;20485;-71
2022/07/21 01:20:52;;;;;;;12.43;9.48;;;;;;;19.45;100.00;101525.22;4717772;30;20150;-71
2022/07/21 01:23:19;;;;;;;11.68;9.52;;;;;;;19.44;100.00;101529.06;4717391;30;20112;-71
2022/07/21 01:25:49;;;;;;;11.18;9.98;;;;;;;19.42;100.00;101525.78;4718089;30;20124;-71
2022/07/21 01:28:15;;;;;;;11.43;9.87;;;;;;;19.39;100.00;101529.06;4718125;30;20025;-70
2022/07/21 01:30:40;;;;;;;10.65;9.20;;;;;;;19.35;100.00;101526.00;4716677;30;20040;-70
2022/07/21 01:33:05;;;;;;;11.13;9.98;;;;;;;19.36;100.00;101533.16;4717169;30;20098;-71
2022/07/21 01:35:31;;;;;;;13.52;10.43;;;;;;;19.34;100.00;101523.53;4718020;30;20044;-70
2022/07/21 01:37:58;;;;;;;14.20;10.35;;;;;;;19.37;100.00;101540.31;4715753;30;20425;-71
2022/07/21 01:43:06;;;;;;;14.45;9.88;;;;;;;19.38;100.00;101530.13;4717193;30;20183;-72
2022/07/21 01:45:32;;;;;;;13.35;10.02;;;;;;;19.44;100.00;101532.63;4717271;30;20112;-71
2022/07/21 01:47:57;;;;;;;11.23;9.57;;;;;;;19.38;100.00;101530.13;4717447;30;20385;-70
2022/07/21 01:50:26;;;;;;;10.82;9.73;;;;;;;19.35;100.00;101531.50;4717813;30;20037;-70
2022/07/21 01:52:53;;;;;;;12.38;10.07;;;;;;;19.36;100.00;101530.41;4717784;30;20037;-70
2022/07/21 01:55:19;;;;;;;12.75;9.80;;;;;;;19.34;100.00;101531.75;4717022;30;20459;-70
2022/07/21 01:57:44;;;;;;;12.65;10.10;;;;;;;19.37;100.00;101533.97;4717018;30;20048;-70
2022/07/21 02:00:10;;;;;;;14.20;10.40;;;;;;;19.30;100.00;101540.53;4717801;30;20040;-70
2022/07/21 02:02:36;;;;;;;10.98;9.82;;;;;;;19.22;100.00;101541.03;4726691;30;20405;-70
2022/07/21 02:05:01;;;;;;;11.55;10.02;;;;;;;19.24;100.00;101536.09;4720450;30;20052;-70
2022/07/21 02:07:26;;;;;;;11.32;10.20;;;;;;;19.22;100.00;101531.97;4716617;30;20044;-70
2022/07/21 02:09:52;;;;;;;13.05;10.52;;;;;;;19.18;100.00;101523.47;4717623;30;20037;-70
2022/07/21 02:12:17;;;;;;;11.70;10.48;;;;;;;19.18;100.00;101534.44;4717374;30;20532;-70
2022/07/21 02:14:42;;;;;;;13.45;10.38;;;;;;;19.18;100.00;101541.84;4716452;30;20037;-70
2022/07/21 02:17:08;;;;;;;13.63;10.73;;;;;;;19.12;100.00;101530.00;4717142;30;20029;-70
2022/07/21 02:19:33;;;;;;;14.73;10.40;;;;;;;19.16;100.00;101533.03;4717151;30;20040;-70
2022/07/21 02:21:58;;;;;;;15.25;10.88;;;;;;;19.20;100.00;101529.50;4716766;30;20367;-70
2022/07/21 02:24:24;;;;;;;14.57;10.93;;;;;;;19.16;100.00;101533.88;4716874;30;20041;-70
2022/07/21 02:26:49;;;;;;;15.75;11.55;;;;;;;19.19;100.00;101527.88;4716705;30;20033;-70
2022/07/21 02:29:14;;;;;;;14.43;10.40;;;;;;;19.15;100.00;101515.75;4701554;30;20029;-70
2022/07/21 02:31:39;;;;;;;12.45;10.60;;;;;;;19.11;100.00;101520.13;4717264;30;20514;-72
2022/07/21 02:34:06;;;;;;;14.52;11.40;;;;;;;19.05;100.00;101516.56;4716253;30;20033;-72
2022/07/21 02:36:31;;;;;;;14.50;10.88;;;;;;;19.09;100.00;101520.38;4701259;30;20088;-71
2022/07/21 02:38:57;;;;;;;13.75;11.45;;;;;;;19.10;100.00;101518.50;4716545;30;20032;-70
2022/07/21 02:41:22;;;;;;;15.20;11.30;;;;;;;19.11;100.00;101520.97;4716767;30;20033;-71
2022/07/21 02:43:47;;;;;;;14.13;11.77;;;;;;;19.09;100.00;101516.84;4715191;30;20437;-72
2022/07/21 02:46:13;;;;;;;16.33;12.57;;;;;;;19.13;100.00;101520.69;4716365;30;20037;-70
2022/07/21 02:48:38;;;;;;;14.25;11.75;;;;;;;19.13;100.00;101517.97;4716979;30;20477;-73
2022/07/21 02:51:03;;;;;;;15.35;11.70;;;;;;;19.15;100.00;101513.03;4716541;30;20037;-70
2022/07/21 02:53:29;;;;;;;14.95;12.10;;;;;;;19.10;100.00;101504.78;4716197;30;20029;-70
2022/07/21 02:55:54;;;;;;;16.63;11.73;;;;;;;19.16;100.00;101514.69;4716440;30;20087;-70
2022/07/21 02:58:25;;;;;;;14.73;13.15;;;;;;;19.16;100.00;101520.16;4716958;30;20370;-70
2022/07/21 03:00:52;;;;;;;14.32;11.75;;;;;;;19.10;100.00;101521.25;4715247;30;20021;-70
2022/07/21 03:03:18;;;;;;;17.45;12.80;;;;;;;19.06;100.00;101511.88;4734408;30;20079;-69
2022/07/21 03:05:43;;;;;;;16.80;12.57;;;;;;;19.08;100.00;101509.69;4716432;30;20450;-71
2022/07/21 03:08:10;;;;;;;15.32;12.43;;;;;;;19.10;100.00;101516.56;4716341;30;20489;-72
2022/07/21 03:10:36;;;;;;;16.52;13.05;;;;;;;19.11;100.00;101503.66;4716841;30;20115;-70
2022/07/21 03:13:02;;;;;;;17.08;13.30;;;;;;;19.11;100.00;101514.63;4716631;30;20036;-69
2022/07/21 03:15:28;;;;;;;14.23;12.52;;;;;;;19.12;100.00;101508.06;4716046;30;20036;-71
2022/07/21 03:17:54;;;;;;;14.93;12.63;;;;;;;19.18;100.00;101504.25;4716425;30;20037;-69
2022/07/21 03:20:22;;;;;;;16.85;12.27;;;;;;;19.12;100.00;101502.59;4720272;30;20493;-71
2022/07/21 03:22:48;;;;;;;17.23;12.95;;;;;;;19.17;100.00;101502.59;4720015;30;20374;-71
2022/07/21 03:25:13;;;;;;;15.63;13.30;;;;;;;19.13;100.00;101498.75;4719591;30;20039;-69
2022/07/21 03:27:38;;;;;;;16.38;12.43;;;;;;;19.16;100.00;101506.44;4720150;30;20041;-71
2022/07/21 03:30:06;;;;;;;17.88;14.00;;;;;;;19.15;100.00;101521.25;4719682;30;20363;-71
2022/07/21 03:32:31;;;;;;;15.57;12.57;;;;;;;19.13;100.00;101518.78;4720129;30;20029;-71
2022/07/21 03:34:56;;;;;;;16.10;13.05;;;;;;;19.15;100.00;101517.69;4719031;30;20454;-71
2022/07/21 03:37:22;;;;;;;15.15;12.82;;;;;;;19.12;100.00;101508.88;4719623;30;20051;-69
2022/07/21 03:39:47;;;;;;;19.67;12.88;;;;;;;19.12;100.00;101511.63;4719942;30;20037;-71
2022/07/21 03:42:12;;;;;;;17.42;12.75;;;;;;;19.10;100.00;101515.75;4720044;30;20191;-72
2022/07/21 03:44:38;;;;;;;15.88;13.05;;;;;;;19.12;100.00;101510.81;4719159;30;20044;-69
2022/07/21 03:47:03;;;;;;;16.23;12.85;;;;;;;19.17;100.00;101520.97;4718585;30;20462;-71
2022/07/21 03:49:30;;;;;;;16.15;11.93;;;;;;;19.13;100.00;101521.53;4703907;30;20056;-70
2022/07/21 03:51:55;;;;;;;19.52;12.13;;;;;;;19.11;100.00;101514.63;4719175;30;20108;-72
2022/07/21 03:54:20;;;;;;;16.00;12.40;;;;;;;19.10;100.00;101516.56;4718571;30;20116;-70
2022/07/21 03:56:46;;;;;;;15.80;12.23;;;;;;;19.08;100.00;101521.50;4719724;30;20095;-71
2022/07/21 03:59:11;;;;;;;16.67;13.00;;;;;;;19.09;100.00;101522.31;4719533;30;20121;-70
2022/07/21 04:01:36;;;;;;;17.35;11.98;;;;;;;19.09;100.00;101525.06;4720691;30;20378;-69
2022/07/21 04:04:02;;;;;;;15.52;11.88;;;;;;;19.13;100.00;101523.44;4718026;30;20044;-70
2022/07/21 04:06:27;;;;;;;15.80;11.73;;;;;;;19.12;100.00;101524.53;4719238;30;20087;-69
2022/07/21 04:08:52;;;;;;;16.98;11.18;;;;;;;19.15;100.00;101539.63;4719174;30;20091;-69
2022/07/21 04:11:17;;;;;;;15.95;11.27;;;;;;;19.16;100.00;101541.28;4719229;30;20119;-70
2022/07/21 04:13:43;;;;;;;14.77;11.23;;;;;;;19.15;100.00;101543.19;4718548;30;20040;-69
2022/07/21 04:16:08;;;;;;;16.40;11.52;;;;;;;19.13;100.00;101539.91;4719018;30;20105;-70
2022/07/21 04:18:33;;;;;;;17.13;11.50;;;;;;;19.12;100.00;101538.25;4719251;30;20067;-70
2022/07/21 04:20:59;;;;;;;16.77;11.38;;;;;;;19.06;100.00;101533.81;4718709;30;20061;-70
2022/07/21 04:23:24;;;;;;;21.25;11.57;;;;;;;19.03;100.00;101535.16;4703565;30;20033;-70
2022/07/21 04:25:49;;;;;;;17.27;11.98;;;;;;;19.05;100.00;101526.69;4718180;30;20069;-70
2022/07/21 04:28:14;;;;;;;16.13;11.15;;;;;;;19.03;100.00;101528.88;4718548;30;20037;-70
2022/07/21 04:30:40;;;;;;;17.95;11.25;;;;;;;19.02;100.00;101529.94;4718692;30;20047;-70
2022/07/21 04:33:06;;;;;;;15.93;11.75;;;;;;;19.03;100.00;101526.13;4718913;30;20033;-70
2022/07/21 04:35:31;;;;;;;17.00;11.50;;;;;;;19.00;100.00;101524.72;4718496;30;20072;-70
2022/07/21 04:37:57;;;;;;;18.38;11.43;;;;;;;18.99;100.00;101527.75;4718577;30;20064;-70
2022/07/21 04:40:22;;;;;;;18.58;11.60;;;;;;;19.01;100.00;101520.06;4718088;30;20434;-70
2022/07/21 04:42:47;;;;;;;17.15;10.98;;;;;;;18.98;100.00;101526.06;4718877;30;20029;-70
2022/07/21 04:45:14;;;;;;;15.45;11.07;;;;;;;18.96;100.00;101520.84;4717460;30;20033;-70
2022/07/21 04:47:50;;;;;;;17.58;11.13;;;;;;;18.94;100.00;101520.31;4718423;30;20706;-70
2022/07/21 04:50:17;;;;;;;15.77;11.30;;;;;;;18.97;100.00;101525.25;4718167;30;20500;-71
2022/07/21 04:52:43;;;;;;;17.38;11.68;;;;;;;18.92;100.00;101525.25;4718751;30;20033;-70
2022/07/21 04:55:10;;;;;;;16.38;12.02;;;;;;;18.94;100.00;101523.06;4717849;30;20120;-70
2022/07/21 04:57:40;;;;;;;16.92;11.65;;;;;;;18.93;100.00;101535.94;4717631;30;20072;-69
2022/07/21 05:00:08;;;;;;;18.08;11.63;;;;;;;18.97;100.00;101538.16;4718448;30;20047;-70
2022/07/21 05:05:55;;;;;;;16.35;12.25;;;;;;;19.00;100.00;101532.16;4716621;30;20048;-70
2022/07/21 05:08:20;;;;;;;17.15;11.75;;;;;;;18.94;100.00;101534.84;4718207;30;20104;-73
2022/07/21 05:10:45;;;;;;;16.92;11.13;;;;;;;18.88;100.00;101533.16;4718760;30;20045;-71
2022/07/21 05:13:10;;;;;;;15.93;10.52;;;;;;;18.90;100.00;101531.00;4718165;30;20040;-69
2022/07/21 05:15:38;;;;;;;17.15;10.82;;;;;;;18.94;100.00;101536.75;4717787;30;20114;-71
2022/07/21 05:18:06;;;;;;;17.42;11.35;;;;;;;18.90;100.00;101527.41;4702246;30;20033;-70
2022/07/21 05:20:33;;;;;;;16.77;10.80;;;;;;;18.89;100.00;101536.75;4718034;30;20029;-74
2022/07/21 05:22:59;;;;;;;18.90;10.85;;;;;;;18.89;100.00;101526.59;4717967;30;20033;-70
2022/07/21 05:25:24;;;;;;;17.98;10.32;;;;;;;18.87;100.00;101528.78;4707706;30;20087;-71
2022/07/21 05:27:49;;;;;;;14.90;9.75;;;;;;;18.92;100.00;101528.81;4718216;30;20473;-71
2022/07/21 05:33:47;;;;;;;16.65;10.75;;;;;;;18.90;100.00;101522.78;4716339;30;20398;-73
2022/07/21 05:36:23;;;;;;;16.08;10.32;;;;;;;18.83;100.00;101524.88;4715766;30;20041;-72
2022/07/21 05:39:43;;;;;;;16.55;10.40;;;;;;;18.85;100.00;101519.97;4700491;30;20494;-71
2022/07/21 05:42:08;;;;;;;16.13;10.13;;;;;;;18.85;100.00;101519.13;4713073;30;20036;-70
2022/07/21 05:44:33;;;;;;;17.25;9.48;;;;;;;18.81;100.00;101513.34;4717786;30;20036;-68
2022/07/21 05:46:58;;;;;;;12.77;9.48;;;;;;;18.84;100.00;101520.22;4716326;30;20371;-68
2022/07/21 05:49:24;;;;;;;16.08;10.25;;;;;;;18.83;100.00;101513.91;4717195;30;20029;-72
2022/07/21 05:51:49;;;;;;;15.90;10.55;;;;;;;18.86;100.00;101510.66;4717649;30;20647;-70
2022/07/21 05:54:14;;;;;;;20.25;11.77;;;;;;;18.88;100.00;101510.41;4701703;30;20044;-70
2022/07/21 05:56:40;;;;;;;18.77;11.65;;;;;;;18.88;100.00;101521.38;4717244;30;20036;-69
2022/07/21 05:59:05;;;;;;;17.63;11.80;;;;;;;18.92;100.00;101519.75;4701554;30;20041;-70
2022/07/21 06:01:30;;;;;;;18.33;12.15;;;;;;;18.93;100.00;101524.13;4718204;30;20044;-69
2022/07/21 06:03:56;;;;;;;22.60;12.75;;;;;;;18.91;100.00;101521.66;4735136;30;20028;-69
2022/07/21 06:06:23;;;;;;;22.90;13.88;;;;;;;18.97;100.00;101518.97;4726176;30;20136;-69
2022/07/21 06:08:49;;;;;;;23.27;13.50;;;;;;;18.95;100.00;101522.78;4717147;30;20116;-69
2022/07/21 06:11:17;;;;;;;19.83;13.15;;;;;;;18.97;100.00;101530.75;4713995;30;20061;-71
2022/07/21 06:13:43;;;;;;;25.80;14.60;;;;;;;18.98;100.00;101520.59;4717102;30;20108;-72
2022/07/21 06:16:09;;;;;;;27.92;14.75;;;;;;;19.02;100.00;101517.09;4716183;30;20470;-71
2022/07/21 06:18:35;;;;;;;20.48;14.65;;;;;;;19.10;100.00;101523.97;4701143;30;20056;-70
2022/07/21 06:21:00;;;;;;;34.03;15.73;;;;;;;19.17;100.00;101521.81;4716551;30;20088;-71
2022/07/21 06:23:26;;;;;;;25.77;15.02;;;;;;;19.30;100.00;101515.00;4716716;30;20165;-71
2022/07/21 06:25:52;;;;;;;26.75;15.05;;;;;;;19.40;100.00;101512.31;4717166;30;20061;-74
2022/07/21 06:28:18;;;;;;;27.92;16.08;;;;;;;19.52;100.00;101514.84;4698942;30;20596;-74
2022/07/21 06:30:43;;;;;;;27.38;17.02;;;;;;;19.62;100.00;101512.09;4701258;30;20515;-74
2022/07/21 06:33:09;;;;;;;27.75;16.83;;;;;;;19.60;100.00;101517.06;4716850;30;20186;-74
2022/07/21 06:35:35;;;;;;;29.20;17.92;;;;;;;19.60;100.00;101514.31;4713468;30;20123;-74
2022/07/21 06:38:03;;;;;;;27.20;17.15;;;;;;;19.65;100.00;101516.25;4715575;30;20390;-75
2022/07/21 06:40:29;;;;;;;32.58;16.98;;;;;;;19.65;100.00;101514.31;4715627;30;21240;-75
2022/07/21 06:42:54;;;;;;;26.10;16.75;;;;;;;19.64;100.00;101528.31;4708183;30;20045;-75
2022/07/21 06:45:20;;;;;;;23.50;15.88;;;;;;;19.64;100.00;101528.31;4716190;30;20044;-75
2022/07/21 06:47:45;;;;;;;26.88;16.00;;;;;;;19.63;100.00;101522.00;4717048;30;20474;-75
2022/07/21 06:50:10;;;;;;;28.30;16.98;;;;;;;19.63;100.00;101526.69;4716588;30;20364;-75
2022/07/21 06:52:36;;;;;;;23.60;16.75;;;;;;;19.59;100.00;101537.34;4716759;30;20037;-74
2022/07/21 06:55:04;;;;;;;29.38;17.45;;;;;;;19.62;100.00;101536.81;4700762;30;20386;-75
2022/07/21 06:57:30;;;;;;;28.50;16.95;;;;;;;19.64;100.00;101534.63;4716641;30;20286;-74
2022/07/21 06:59:55;;;;;;;25.52;16.67;;;;;;;19.63;100.00;101543.97;4717018;30;20652;-74
2022/07/21 07:02:21;;;;;;;27.27;17.23;;;;;;;19.62;100.00;101544.22;4726548;30;20167;-74
2022/07/21 07:04:46;;;;;;;26.25;16.75;;;;;;;19.62;100.00;101547.78;4718559;30;20033;-75
2022/07/21 07:07:11;;;;;;;27.00;16.55;;;;;;;19.58;100.00;101551.34;4733818;30;20094;-75
2022/07/21 07:09:37;;;;;;;26.38;16.85;;;;;;;19.50;100.00;101549.94;4734281;30;20479;-74
2022/07/21 07:12:03;;;;;;;27.42;16.90;;;;;;;19.47;100.00;101555.97;4734104;30;20033;-75
2022/07/21 07:14:33;;;;;;;26.30;16.30;;;;;;;19.52;100.00;101553.28;4718394;30;20033;-75
2022/07/21 07:16:59;;;;;;;25.30;16.52;;;;;;;19.42;100.00;101555.97;4734213;30;20474;-75
2022/07/21 07:19:25;;;;;;;23.83;16.05;;;;;;;19.39;100.00;101554.56;4732514;30;20020;-74
2022/07/21 07:21:50;;;;;;;25.25;17.95;;;;;;;19.39;100.00;101542.78;4718140;30;20508;-75
2022/07/21 07:24:16;;;;;;;27.08;15.93;;;;;;;19.34;100.00;101549.06;4718119;30;20051;-74
2022/07/21 07:26:42;;;;;;;28.02;17.70;;;;;;;19.29;100.00;101549.03;4734165;30;20370;-74
2022/07/21 07:29:07;;;;;;;22.88;16.75;;;;;;;19.35;100.00;101549.88;4732678;30;20028;-75
2022/07/21 07:31:32;;;;;;;28.10;15.88;;;;;;;19.38;100.00;101543.84;4734252;30;20568;-74
2022/07/21 07:33:58;;;;;;;27.60;15.93;;;;;;;19.39;100.00;101542.78;4734153;30;20095;-74
2022/07/21 07:36:27;;;;;;;27.20;15.38;;;;;;;19.38;100.00;101544.69;4733849;30;20025;-74
2022/07/21 07:38:53;;;;;;;24.92;16.52;;;;;;;19.34;100.00;101559.19;4733967;30;20044;-75
2022/07/21 07:41:20;;;;;;;26.70;16.05;;;;;;;19.32;100.00;101561.41;4717807;30;20045;-74
2022/07/21 07:43:45;;;;;;;31.58;16.55;;;;;;;19.26;100.00;101549.56;4718170;30;20372;-74
2022/07/21 07:46:12;;;;;;;27.17;15.45;;;;;;;19.17;100.00;101551.97;4733825;30;20032;-74
2022/07/21 07:48:40;;;;;;;26.27;15.23;;;;;;;19.16;100.00;101552.25;4733997;30;20036;-74
2022/07/21 07:51:05;;;;;;;24.23;14.43;;;;;;;19.05;100.00;101557.69;4733795;30;20086;-74
2022/07/21 07:53:33;;;;;;;21.70;12.27;;;;;;;18.94;100.00;101556.78;4733817;30;20040;-73
2022/07/21 07:55:58;;;;;;;15.23;11.60;;;;;;;18.86;100.00;101560.03;4733918;30;20032;-73
2022/07/21 07:58:24;;;;;;;15.10;10.50;;;;;;;18.85;100.00;101557.50;4733467;30;20103;-73
2022/07/21 08:00:49;;;;;;;15.32;9.90;;;;;;;18.73;100.00;101546.72;4728585;30;20206;-74
2022/07/21 08:03:15;;;;;;;12.57;9.13;;;;;;;18.67;100.00;101548.59;4716270;30;20044;-74
2022/07/21 08:05:40;;;;;;;12.23;9.32;;;;;;;18.61;100.00;101549.66;4718859;30;20118;-74
2022/07/21 08:08:05;;;;;;;12.10;9.00;;;;;;;18.56;100.00;101561.41;4719402;30;20052;-73
2022/07/21 08:10:31;;;;;;;13.15;9.20;;;;;;;18.58;100.00;101553.78;4719767;30;20044;-73
2022/07/21 08:12:59;;;;;;;11.80;9.18;;;;;;;18.56;100.00;101558.66;4719522;30;20420;-73
2022/07/21 08:15:25;;;;;;;11.00;8.80;;;;;;;18.52;100.00;101549.31;4719205;30;20037;-73
2022/07/21 08:17:50;;;;;;;9.23;7.97;;;;;;;18.52;100.00;101557.53;4719371;30;20128;-74
2022/07/21 08:20:15;;;;;;;8.77;7.82;;;;;;;18.51;100.00;101561.38;4718846;30;20120;-73
2022/07/21 08:22:41;;;;;;;9.48;7.72;;;;;;;18.47;100.00;101557.50;4719828;30;20181;-74
2022/07/21 08:25:06;;;;;;;9.10;7.35;;;;;;;18.47;100.00;101554.75;4718816;30;20033;-72
2022/07/21 08:27:31;;;;;;;8.65;6.88;;;;;;;18.49;100.00;101560.78;4719267;30;20033;-74
2022/07/21 08:29:56;;;;;;;8.90;6.90;;;;;;;18.47;100.00;101554.75;4719088;30;20091;-73
2022/07/21 08:32:22;;;;;;;7.57;6.80;;;;;;;18.49;100.00;101555.31;4718890;30;20109;-73
2022/07/21 08:34:48;;;;;;;8.75;7.35;;;;;;;18.53;100.00;101561.94;4703180;30;20126;-74
2022/07/21 08:37:13;;;;;;;9.50;7.50;;;;;;;18.56;100.00;101561.41;4719157;30;20486;-73
2022/07/21 08:39:38;;;;;;;10.63;7.13;;;;;;;18.57;100.00;101560.31;4718691;30;20055;-73
2022/07/21 08:42:07;;;;;;;9.88;7.10;;;;;;;18.54;100.00;101560.00;4703111;30;20122;-73
2022/07/21 08:44:32;;;;;;;10.05;7.20;;;;;;;18.52;100.00;101557.53;4718935;30;20035;-73
2022/07/21 08:46:58;;;;;;;11.95;7.65;;;;;;;18.56;100.00;101568.81;4718920;30;20029;-73
2022/07/21 08:49:24;;;;;;;8.82;7.30;;;;;;;18.53;100.00;101563.84;4702952;30;20124;-74
2022/07/21 08:51:51;;;;;;;11.32;8.10;;;;;;;18.54;100.00;101566.34;4718852;30;20037;-74
2022/07/21 08:54:17;;;;;;;11.32;8.38;;;;;;;18.53;100.00;101563.84;4718632;30;20044;-74
2022/07/21 08:56:42;;;;;;;10.63;8.20;;;;;;;18.52;100.00;101563.00;4719004;30;20035;-74
2022/07/21 08:59:07;;;;;;;9.95;8.82;;;;;;;18.49;100.00;101563.53;4718214;30;20437;-74
2022/07/21 09:01:33;;;;;;;11.27;8.25;;;;;;;18.53;100.00;101563.84;4722250;30;20102;-74
2022/07/21 09:04:20;;;;;;;11.23;8.82;;;;;;;18.60;100.00;101570.75;4735879;30;20429;-73
2022/07/21 09:07:01;;;;;;;14.73;8.93;;;;;;;18.54;100.00;101565.47;4735800;30;20033;-74
2022/07/21 09:09:29;;;;;;;12.90;8.73;;;;;;;18.45;100.00;101551.47;4735658;30;20033;-74
2022/07/21 09:11:55;;;;;;;10.00;8.75;;;;;;;18.52;100.00;101567.69;4735618;30;20275;-73
2022/07/21 09:14:26;;;;;;;9.27;7.80;;;;;;;18.52;100.00;101568.50;4735656;30;20044;-73
2022/07/21 09:16:54;;;;;;;8.98;8.05;;;;;;;18.53;100.00;101567.41;4734917;30;20048;-73
2022/07/21 09:19:24;;;;;;;8.80;7.82;;;;;;;18.56;100.00;101575.09;4719750;30;20378;-73
2022/07/21 09:21:52;;;;;;;11.13;8.02;;;;;;;18.54;100.00;101573.72;4735603;30;20060;-74
2022/07/21 09:24:38;;;;;;;9.07;7.40;;;;;;;18.51;100.00;101576.97;4735391;30;20111;-74
2022/07/21 09:27:12;;;;;;;8.20;7.32;;;;;;;18.51;100.00;101575.09;4735517;30;20025;-74
2022/07/21 09:29:42;;;;;;;9.30;8.00;;;;;;;18.51;100.00;101582.44;4735387;30;20036;-74
2022/07/21 09:32:15;;;;;;;10.02;8.05;;;;;;;18.54;100.00;101587.41;4735408;30;20025;-73
2022/07/21 09:34:41;;;;;;;8.70;7.20;;;;;;;18.50;100.00;101587.13;4735314;30;20469;-73
2022/07/21 09:37:07;;;;;;;7.68;6.88;;;;;;;18.47;100.00;101582.16;4735599;30;20120;-73
2022/07/21 09:39:53;;;;;;;8.25;6.75;;;;;;;18.42;100.00;101591.16;4735218;30;20104;-74
2022/07/21 09:42:24;;;;;;;6.90;5.78;;;;;;;18.38;100.00;101586.47;4734991;30;20059;-73
2022/07/21 09:44:58;;;;;;;6.65;5.40;;;;;;;18.39;100.00;101599.09;4735146;30;20050;-74
2022/07/21 09:47:26;;;;;;;4.65;4.22;;;;;;;18.33;100.00;101586.44;4735200;30;20043;-74
2022/07/21 09:49:53;;;;;;;4.75;4.35;;;;;;;18.28;100.00;101589.09;4735372;30;20051;-74
2022/07/21 09:52:24;;;;;;;4.57;4.18;;;;;;;18.31;100.00;101599.53;4735281;30;20365;-74
2022/07/21 09:54:51;;;;;;;4.82;4.43;;;;;;;18.23;100.00;101598.91;4735295;30;20040;-73
2022/07/21 09:57:17;;;;;;;4.82;4.43;;;;;;;18.22;100.00;101597.28;4718974;30;20032;-73
2022/07/21 09:59:44;;;;;;;5.30;4.72;;;;;;;18.21;100.00;101594.81;4735149;30;20094;-73
2022/07/21 10:02:15;;;;;;;5.75;4.30;;;;;;;18.21;100.00;101605.75;4720297;30;20136;-74
2022/07/21 10:04:42;;;;;;;5.57;4.32;;;;;;;18.21;100.00;101605.75;4717688;30;20037;-74
2022/07/21 10:07:07;;;;;;;6.35;5.00;;;;;;;18.22;100.00;101610.13;4717862;30;20036;-73
2022/07/21 10:09:33;;;;;;;6.43;5.20;;;;;;;18.19;100.00;101606.00;4717642;30;20040;-73
2022/07/21 10:11:59;;;;;;;6.55;5.30;;;;;;;18.19;100.00;101614.22;4717240;30;20037;-74
2022/07/21 10:14:25;;;;;;;7.20;5.78;;;;;;;18.15;100.00;101615.81;4701522;30;20483;-73
2022/07/21 10:16:50;;;;;;;6.43;5.82;;;;;;;18.15;100.00;101618.56;4717767;30;20090;-73
2022/07/21 10:19:26;;;;;;;7.57;6.22;;;;;;;18.17;100.00;101621.88;4717225;30;20184;-74
2022/07/21 10:22:05;;;;;;;6.97;6.10;;;;;;;18.22;100.00;101615.59;4716874;30;20067;-74
2022/07/21 10:24:31;;;;;;;6.65;5.97;;;;;;;18.28;100.00;101627.44;4717159;30;20029;-75
2022/07/21 10:27:04;;;;;;;8.82;5.95;;;;;;;18.33;100.00;101624.78;4717091;30;20048;-74
2022/07/21 10:29:47;;;;;;;9.35;5.90;;;;;;;18.33;100.00;101635.75;4716803;30;20485;-75
2022/07/21 10:32:15;;;;;;;7.07;6.40;;;;;;;18.29;100.00;101632.69;4717122;30;20040;-75
2022/07/21 10:34:40;;;;;;;7.47;6.65;;;;;;;18.34;100.00;101638.22;4717330;30;20075;-72
2022/07/21 10:37:06;;;;;;;7.22;6.50;;;;;;;18.37;100.00;101636.88;4717194;30;20072;-73
2022/07/21 10:39:35;;;;;;;8.75;6.75;;;;;;;18.34;100.00;101640.13;4716896;30;20415;-73
2022/07/21 10:42:14;;;;;;;9.32;6.93;;;;;;;18.37;100.00;101645.09;4716588;30;20436;-73
2022/07/21 10:44:41;;;;;;;9.63;7.28;;;;;;;18.37;100.00;101637.72;4717387;30;20029;-73
2022/07/21 10:47:19;;;;;;;8.55;6.82;;;;;;;18.35;100.00;101641.78;4717043;30;20047;-73
2022/07/21 10:49:46;;;;;;;9.45;7.47;;;;;;;18.33;100.00;101647.53;4717034;30;20029;-73
2022/07/21 10:52:41;;;;;;;10.88;7.25;;;;;;;18.39;100.00;101646.50;4716979;30;20064;-74
2022/07/21 10:55:09;;;;;;;10.02;6.22;;;;;;;18.31;100.00;101651.59;4716755;30;20455;-73
2022/07/21 10:57:35;;;;;;;10.30;6.57;;;;;;;18.23;100.00;101647.41;4716717;30;20037;-73
2022/07/21 11:00:19;;;;;;;9.02;5.70;;;;;;;18.22;100.00;101652.06;4701202;30;20475;-73
2022/07/21 11:02:57;;;;;;;10.80;6.57;;;;;;;18.16;100.00;101655.84;4729402;30;20049;-74
2022/07/21 11:05:24;;;;;;;14.52;6.82;;;;;;;18.15;100.00;101654.16;4734136;30;20039;-74
2022/07/21 11:08:12;;;;;;;10.63;6.97;;;;;;;18.30;100.00;101659.00;4734079;30;20032;-74
2022/07/21 11:10:40;;;;;;;7.72;6.20;;;;;;;18.21;100.00;101650.41;4734090;30;20028;-74
2022/07/21 11:13:06;;;;;;;12.32;6.68;;;;;;;18.18;100.00;101650.09;4734360;30;20158;-74
2022/07/21 11:15:55;;;;;;;9.25;6.82;;;;;;;18.19;100.00;101655.31;4715256;30;20387;-73
2022/07/21 11:18:23;;;;;;;10.70;6.50;;;;;;;18.18;100.00;101655.56;4714635;30;20057;-74